Time;durP1;ratioP1;P1;durP2;ratioP2;P2;SDS_P1;SDS_P2;PMS_P1;PMS_P2;Temp;Humidity;BMP_temperature;BMP_pressure;BME280_temperature;BME280_humidity;BME280_pressure;Samples;Min_cycle;Max_cycle;Signal;HPM_P1;HPM_P2
2022/04/23 00:01:27;;;;;;;;;;;12.40;94.20;;;;;;5040163;28;35344;-55
2022/04/23 00:03:54;;;;;;;;;;;12.30;94.30;;;;;;5038877;28;37425;-63
2022/04/23 00:06:21;;;;;;;;;;;12.30;94.20;;;;;;5038143;28;39159;-62
2022/04/23 00:08:48;;;;;;;;;;;12.30;94.40;;;;;;5039979;28;36971;-63
2022/04/23 00:11:15;;;;;;;;;;;12.30;94.40;;;;;;5039467;28;36557;-63
2022/04/23 00:13:44;;;;;;;;;;;12.30;94.30;;;;;;5040959;28;37619;-63
2022/04/23 00:16:14;;;;;;;;;;;12.30;94.50;;;;;;5039735;28;38503;-53
2022/04/23 00:18:42;;;;;;;;;;;12.20;94.50;;;;;;5039949;28;37789;-54
2022/04/23 00:21:09;;;;;;;;;;;12.20;94.70;;;;;;5036995;28;37578;-54
2022/04/23 00:23:36;;;;;;;;;;;12.20;94.70;;;;;;5038521;28;36180;-54
2022/04/23 00:26:03;;;;;;;;;;;12.20;95.00;;;;;;5040504;28;38887;-55
2022/04/23 00:28:30;;;;;;;;;;;12.10;95.10;;;;;;5039390;28;36274;-55
2022/04/23 00:30:58;;;;;;;;;;;12.10;95.00;;;;;;5038914;28;37475;-55
2022/04/23 00:33:25;;;;;;;;;;;12.00;95.30;;;;;;5037522;28;36341;-54
2022/04/23 00:35:52;;;;;;;;;;;12.00;95.50;;;;;;5036598;28;37764;-54
2022/04/23 00:38:19;;;;;;;;;;;12.00;95.80;;;;;;5035944;28;37712;-55
2022/04/23 00:40:46;;;;;;;;;;;12.00;95.80;;;;;;5038668;28;40083;-55
2022/04/23 00:43:24;;;;;;;;;;;11.90;95.90;;;;;;5039373;28;36662;-54
2022/04/23 00:45:51;;;;;;;;;;;11.90;96.10;;;;;;5038367;28;37954;-54
2022/04/23 00:48:21;;;;;;;;;;;11.80;96.20;;;;;;5039864;28;37583;-55
2022/04/23 00:50:50;;;;;;;;;;;11.80;96.50;;;;;;5037230;28;36730;-55
2022/04/23 00:53:17;;;;;;;;;;;11.80;96.50;;;;;;5037599;28;36196;-53
2022/04/23 00:55:44;;;;;;;;;;;11.80;96.50;;;;;;5037448;28;37587;-54
2022/04/23 00:58:11;;;;;;;;;;;11.80;96.60;;;;;;5037722;28;38725;-62
2022/04/23 01:00:40;;;;;;;;;;;11.70;96.60;;;;;;5038958;28;36676;-62
2022/04/23 01:03:08;;;;;;;;;;;11.70;96.50;;;;;;5038328;28;36598;-63
2022/04/23 01:05:36;;;;;;;;;;;11.70;96.60;;;;;;5039796;28;38574;-63
2022/04/23 01:08:04;;;;;;;;;;;11.70;96.70;;;;;;5037738;28;36378;-62
2022/04/23 01:10:31;;;;;;;;;;;11.70;96.80;;;;;;5038055;28;36863;-63
2022/04/23 01:12:59;;;;;;;;;;;11.70;97.00;;;;;;5038243;28;37808;-63
2022/04/23 01:15:26;;;;;;;;;;;11.70;97.00;;;;;;5037653;28;38730;-54
2022/04/23 01:17:53;;;;;;;;;;;11.70;97.10;;;;;;5038335;28;37757;-55
2022/04/23 01:20:24;;;;;;;;;;;11.60;97.10;;;;;;5038382;28;36988;-54
2022/04/23 01:22:51;;;;;;;;;;;11.60;97.00;;;;;;5037815;28;37593;-54
2022/04/23 01:25:18;;;;;;;;;;;11.60;97.20;;;;;;5038872;28;38849;-54
2022/04/23 01:27:46;;;;;;;;;;;11.60;97.00;;;;;;5038483;28;37315;-55
2022/04/23 01:30:13;;;;;;;;;;;11.60;97.10;;;;;;5038429;28;37151;-54
2022/04/23 01:32:40;;;;;;;;;;;11.60;97.10;;;;;;5038355;28;37374;-54
2022/04/23 01:35:07;;;;;;;;;;;11.60;97.10;;;;;;5038077;28;37411;-55
2022/04/23 01:37:36;;;;;;;;;;;11.50;97.30;;;;;;5037433;28;38428;-55
2022/04/23 01:40:04;;;;;;;;;;;11.50;97.20;;;;;;5037597;28;37673;-55
2022/04/23 01:42:31;;;;;;;;;;;11.50;97.50;;;;;;5036807;28;36665;-54
2022/04/23 01:44:58;;;;;;;;;;;11.50;97.50;;;;;;5038035;28;37359;-54
2022/04/23 01:47:25;;;;;;;;;;;11.50;97.50;;;;;;5038318;28;38599;-54
2022/04/23 01:49:52;;;;;;;;;;;11.50;97.70;;;;;;5038065;28;38991;-51
2022/04/23 01:52:19;;;;;;;;;;;11.50;97.60;;;;;;5038833;28;37028;-54
2022/04/23 01:54:47;;;;;;;;;;;11.50;97.60;;;;;;5037523;28;41331;-54
2022/04/23 01:57:14;;;;;;;;;;;11.40;97.70;;;;;;5037682;28;37123;-54
2022/04/23 01:59:41;;;;;;;;;;;11.40;97.80;;;;;;5038045;28;37607;-54
2022/04/23 02:02:08;;;;;;;;;;;11.40;97.80;;;;;;5036570;28;36315;-54
2022/04/23 02:04:35;;;;;;;;;;;11.40;97.90;;;;;;5036285;28;37855;-54
2022/04/23 02:07:03;;;;;;;;;;;11.40;98.10;;;;;;5036382;28;38816;-62
2022/04/23 02:09:30;;;;;;;;;;;11.30;98.00;;;;;;5037807;28;36859;-63
2022/04/23 02:11:58;;;;;;;;;;;11.30;98.10;;;;;;5036728;28;35162;-61
2022/04/23 02:14:25;;;;;;;;;;;11.30;98.10;;;;;;5038027;28;36610;-62
2022/04/23 02:16:53;;;;;;;;;;;11.30;98.30;;;;;;5038198;28;40033;-62
2022/04/23 02:19:20;;;;;;;;;;;11.30;98.30;;;;;;5036799;28;35776;-56
2022/04/23 02:21:47;;;;;;;;;;;11.20;98.30;;;;;;5037332;28;36634;-54
2022/04/23 02:24:15;;;;;;;;;;;11.20;98.40;;;;;;5038149;28;38556;-53
2022/04/23 02:26:42;;;;;;;;;;;11.20;98.50;;;;;;5037382;28;37565;-55
2022/04/23 02:29:11;;;;;;;;;;;11.20;98.40;;;;;;5037451;28;36367;-54
2022/04/23 02:31:38;;;;;;;;;;;11.20;98.40;;;;;;5041233;28;35977;-54
2022/04/23 02:34:05;;;;;;;;;;;11.10;98.60;;;;;;5040951;28;39343;-54
2022/04/23 02:36:32;;;;;;;;;;;11.10;98.60;;;;;;5039555;28;36489;-55
2022/04/23 02:39:01;;;;;;;;;;;11.10;98.70;;;;;;5041454;28;38046;-54
2022/04/23 02:41:28;;;;;;;;;;;11.10;98.60;;;;;;5041469;28;36323;-54
2022/04/23 02:43:57;;;;;;;;;;;11.10;98.50;;;;;;5040138;28;38660;-62
2022/04/23 02:46:26;;;;;;;;;;;11.10;98.60;;;;;;5040883;28;38382;-63
2022/04/23 02:48:55;;;;;;;;;;;11.10;98.40;;;;;;5041275;28;36557;-62
2022/04/23 02:51:22;;;;;;;;;;;11.10;98.50;;;;;;5040980;28;36402;-63
2022/04/23 02:53:49;;;;;;;;;;;11.10;98.30;;;;;;5042149;28;38911;-61
2022/04/23 02:56:19;;;;;;;;;;;11.10;98.30;;;;;;5040272;28;37759;-62
2022/04/23 02:58:46;;;;;;;;;;;11.10;98.20;;;;;;5040228;28;35820;-62
2022/04/23 03:01:13;;;;;;;;;;;11.10;98.40;;;;;;5040829;28;37354;-64
2022/04/23 03:03:41;;;;;;;;;;;11.10;98.30;;;;;;5040293;28;38676;-62
2022/04/23 03:06:08;;;;;;;;;;;11.10;98.00;;;;;;5038704;28;38839;-55
2022/04/23 03:08:37;;;;;;;;;;;11.10;98.10;;;;;;5039059;28;37423;-53
2022/04/23 03:11:05;;;;;;;;;;;11.10;98.10;;;;;;5041655;28;36593;-52
2022/04/23 03:13:34;;;;;;;;;;;11.10;97.90;;;;;;5040038;28;37790;-63
2022/04/23 03:16:01;;;;;;;;;;;11.10;97.80;;;;;;5040956;28;38603;-62
2022/04/23 03:18:28;;;;;;;;;;;11.10;97.60;;;;;;5040726;28;36795;-63
2022/04/23 03:20:58;;;;;;;;;;;11.10;97.60;;;;;;5040675;28;35845;-62
2022/04/23 03:23:25;;;;;;;;;;;11.10;97.60;;;;;;5042457;28;36552;-63
2022/04/23 03:25:52;;;;;;;;;;;11.10;97.40;;;;;;5039723;28;37988;-62
2022/04/23 03:28:20;;;;;;;;;;;11.10;97.30;;;;;;5040553;28;38045;-63
2022/04/23 03:30:47;;;;;;;;;;;11.10;97.20;;;;;;5039709;28;35209;-62
2022/04/23 03:33:14;;;;;;;;;;;11.10;97.50;;;;;;5039732;28;39200;-62
2022/04/23 03:35:42;;;;;;;;;;;11.10;97.10;;;;;;5039303;28;37860;-63
2022/04/23 03:38:10;;;;;;;;;;;11.10;97.00;;;;;;5040684;28;37724;-62
2022/04/23 03:40:38;;;;;;;;;;;11.10;96.80;;;;;;5040333;28;35903;-63
2022/04/23 03:43:05;;;;;;;;;;;11.10;96.90;;;;;;5038797;28;37974;-63
2022/04/23 03:45:33;;;;;;;;;;;11.10;96.70;;;;;;5040203;28;36737;-63
2022/04/23 03:48:01;;;;;;;;;;;11.20;96.60;;;;;;5040470;28;37298;-61
2022/04/23 03:50:29;;;;;;;;;;;11.10;96.60;;;;;;5039863;28;39247;-63
2022/04/23 03:52:57;;;;;;;;;;;11.10;96.70;;;;;;5036930;28;37463;-62
2022/04/23 03:55:26;;;;;;;;;;;11.00;96.50;;;;;;5040055;28;38055;-63
2022/04/23 03:57:54;;;;;;;;;;;11.00;96.50;;;;;;5039130;28;39093;-63
2022/04/23 04:00:21;;;;;;;;;;;11.00;96.60;;;;;;5040892;28;36221;-63
2022/04/23 04:02:48;;;;;;;;;;;11.00;96.70;;;;;;5040444;28;36943;-63
2022/04/23 04:05:16;;;;;;;;;;;10.90;96.60;;;;;;5037927;28;37616;-62
2022/04/23 04:07:43;;;;;;;;;;;11.00;96.60;;;;;;5040812;28;38012;-62
2022/04/23 04:10:11;;;;;;;;;;;10.90;96.30;;;;;;5039983;28;36162;-63
2022/04/23 04:12:39;;;;;;;;;;;10.90;96.60;;;;;;5039236;28;37922;-62
2022/04/23 04:15:07;;;;;;;;;;;10.80;96.70;;;;;;5039578;28;37638;-63
2022/04/23 04:17:34;;;;;;;;;;;10.80;96.60;;;;;;5039822;28;39027;-55
2022/04/23 04:20:01;;;;;;;;;;;10.80;96.50;;;;;;5040063;28;35134;-63
2022/04/23 04:22:29;;;;;;;;;;;10.80;96.60;;;;;;5037679;28;39075;-63
2022/04/23 04:24:57;;;;;;;;;;;10.80;96.80;;;;;;5039065;28;38648;-62
2022/04/23 04:27:24;;;;;;;;;;;10.70;96.80;;;;;;5039330;28;37489;-62
2022/04/23 04:29:52;;;;;;;;;;;10.80;96.80;;;;;;5038942;28;36603;-54
2022/04/23 04:32:20;;;;;;;;;;;10.70;96.60;;;;;;5040781;28;37980;-55
2022/04/23 04:34:47;;;;;;;;;;;10.80;96.60;;;;;;5037578;28;36674;-55
2022/04/23 04:37:14;;;;;;;;;;;10.80;96.60;;;;;;5038145;28;37460;-62
2022/04/23 04:39:42;;;;;;;;;;;10.80;96.40;;;;;;5039395;28;36450;-63
2022/04/23 04:42:09;;;;;;;;;;;10.70;96.30;;;;;;5037930;28;36770;-64
2022/04/23 04:44:37;;;;;;;;;;;10.70;96.50;;;;;;5039119;28;38181;-63
2022/04/23 04:47:06;;;;;;;;;;;10.80;96.70;;;;;;5038763;28;38698;-62
2022/04/23 04:49:33;;;;;;;;;;;10.70;96.30;;;;;;5038941;28;36533;-64
2022/04/23 04:52:00;;;;;;;;;;;10.70;96.50;;;;;;5037699;28;37896;-63
2022/04/23 04:54:27;;;;;;;;;;;10.70;96.40;;;;;;5038662;28;38593;-55
2022/04/23 04:56:56;;;;;;;;;;;10.80;96.60;;;;;;5037139;28;36068;-55
2022/04/23 04:59:23;;;;;;;;;;;10.90;96.30;;;;;;5038637;28;36378;-62
2022/04/23 05:01:51;;;;;;;;;;;10.90;96.30;;;;;;5039212;28;37193;-63
2022/04/23 05:04:19;;;;;;;;;;;10.90;96.00;;;;;;5038969;28;38259;-63
2022/04/23 05:06:46;;;;;;;;;;;10.70;96.10;;;;;;5038576;28;37530;-54
2022/04/23 05:09:14;;;;;;;;;;;10.90;96.10;;;;;;5038627;28;35251;-54
2022/04/23 05:11:41;;;;;;;;;;;11.00;95.60;;;;;;5039527;28;38012;-55
2022/04/23 05:14:08;;;;;;;;;;;11.10;95.40;;;;;;5038462;28;38032;-55
2022/04/23 05:16:35;;;;;;;;;;;11.10;95.50;;;;;;5039205;28;39300;-54
2022/04/23 05:19:02;;;;;;;;;;;11.30;95.40;;;;;;5039029;28;37660;-54
2022/04/23 05:21:30;;;;;;;;;;;11.50;94.90;;;;;;5037872;28;37272;-63
2022/04/23 05:23:57;;;;;;;;;;;11.60;94.50;;;;;;5040260;28;37460;-63
2022/04/23 05:26:24;;;;;;;;;;;11.80;93.60;;;;;;5038123;28;38627;-63
2022/04/23 05:28:51;;;;;;;;;;;11.90;92.80;;;;;;5039330;28;36876;-55
2022/04/23 05:31:18;;;;;;;;;;;12.10;92.40;;;;;;5038555;28;38300;-55
2022/04/23 05:33:45;;;;;;;;;;;12.20;92.30;;;;;;5039288;28;37506;-63
2022/04/23 05:36:12;;;;;;;;;;;12.30;91.50;;;;;;5039507;28;37828;-63
2022/04/23 05:38:41;;;;;;;;;;;12.60;90.70;;;;;;5037838;28;37370;-56
2022/04/23 05:41:08;;;;;;;;;;;12.70;90.20;;;;;;5038621;28;40225;-52
2022/04/23 05:43:35;;;;;;;;;;;12.70;90.10;;;;;;5037887;28;38779;-55
2022/04/23 05:46:02;;;;;;;;;;;12.70;89.90;;;;;;5037704;28;37452;-63
2022/04/23 05:48:29;;;;;;;;;;;12.80;87.70;;;;;;5039099;28;37285;-62
2022/04/23 05:50:56;;;;;;;;;;;12.90;88.40;;;;;;5036164;28;39411;-64
2022/04/23 05:53:23;;;;;;;;;;;13.00;85.70;;;;;;5037719;28;37791;-63
2022/04/23 05:55:53;;;;;;;;;;;13.20;85.40;;;;;;5037815;28;35588;-63
2022/04/23 05:58:20;;;;;;;;;;;13.50;83.80;;;;;;5037359;28;36479;-62
2022/04/23 06:00:47;;;;;;;;;;;13.50;83.00;;;;;;5037415;28;37747;-54
2022/04/23 06:03:14;;;;;;;;;;;13.50;80.20;;;;;;5038210;28;39194;-62
2022/04/23 06:05:41;;;;;;;;;;;13.80;82.60;;;;;;5037237;28;37668;-62
2022/04/23 06:08:09;;;;;;;;;;;13.90;79.80;;;;;;5037041;28;36779;-63
2022/04/23 06:10:36;;;;;;;;;;;14.20;78.40;;;;;;5038430;28;38389;-62
2022/04/23 06:13:06;;;;;;;;;;;14.00;76.60;;;;;;5038156;28;37722;-60
2022/04/23 06:15:33;;;;;;;;;;;14.00;76.30;;;;;;5037068;28;37710;-61
2022/04/23 06:18:00;;;;;;;;;;;14.00;76.60;;;;;;5038020;28;35161;-61
2022/04/23 06:20:27;;;;;;;;;;;14.20;76.10;;;;;;5037170;28;37441;-60
2022/04/23 06:22:54;;;;;;;;;;;14.20;75.00;;;;;;5034895;28;39357;-62
2022/04/23 06:25:22;;;;;;;;;;;14.10;75.90;;;;;;5037240;28;36707;-62
2022/04/23 06:27:50;;;;;;;;;;;14.10;76.00;;;;;;5037327;28;36613;-61
2022/04/23 06:30:18;;;;;;;;;;;14.00;76.50;;;;;;5038849;28;36573;-62
2022/04/23 06:32:45;;;;;;;;;;;13.90;75.60;;;;;;5037614;28;36935;-53
2022/04/23 06:35:12;;;;;;;;;;;13.80;75.40;;;;;;5035710;28;38013;-54
2022/04/23 06:37:40;;;;;;;;;;;13.80;75.50;;;;;;5037280;28;37011;-53
2022/04/23 06:40:08;;;;;;;;;;;13.80;75.40;;;;;;5035148;28;37427;-54
2022/04/23 06:42:35;;;;;;;;;;;13.90;76.00;;;;;;5034787;28;39472;-52
2022/04/23 06:45:02;;;;;;;;;;;13.90;75.50;;;;;;5037002;28;36938;-62
2022/04/23 06:47:30;;;;;;;;;;;13.90;76.00;;;;;;5036405;28;36601;-54
2022/04/23 06:49:58;;;;;;;;;;;13.90;77.40;;;;;;5037038;28;38333;-54
2022/04/23 06:52:25;;;;;;;;;;;14.00;75.70;;;;;;5036033;28;39170;-50
2022/04/23 06:54:54;;;;;;;;;;;14.10;74.40;;;;;;5036102;28;37849;-51
2022/04/23 06:57:22;;;;;;;;;;;14.10;75.20;;;;;;5034713;28;36071;-52
2022/04/23 06:59:50;;;;;;;;;;;14.20;75.00;;;;;;5036162;28;38345;-51
2022/04/23 07:02:17;;;;;;;;;;;14.20;73.10;;;;;;5035276;27;39323;-54
2022/04/23 07:04:46;;;;;;;;;;;14.20;75.10;;;;;;5034263;28;36990;-54
2022/04/23 07:07:13;;;;;;;;;;;14.10;73.60;;;;;;5036749;28;36495;-53
2022/04/23 07:09:40;;;;;;;;;;;14.00;74.40;;;;;;5036555;28;37371;-56
2022/04/23 07:12:07;;;;;;;;;;;14.00;73.10;;;;;;5035932;28;38164;-51
2022/04/23 07:14:34;;;;;;;;;;;14.00;73.00;;;;;;5037470;28;35939;-53
2022/04/23 07:17:03;;;;;;;;;;;14.00;72.80;;;;;;5036246;28;36455;-55
2022/04/23 07:19:32;;;;;;;;;;;13.90;72.80;;;;;;5037958;28;38596;-53
2022/04/23 07:22:00;;;;;;;;;;;14.00;74.00;;;;;;5036971;28;37434;-55
2022/04/23 07:24:27;;;;;;;;;;;14.10;73.20;;;;;;5040181;28;38335;-53
2022/04/23 07:26:55;;;;;;;;;;;14.20;70.80;;;;;;5039931;28;37218;-53
2022/04/23 07:29:22;;;;;;;;;;;14.20;69.50;;;;;;5039891;28;36513;-55
2022/04/23 07:31:49;;;;;;;;;;;14.20;70.20;;;;;;5039357;28;39481;-55
2022/04/23 07:39:46;;;;;;;;;;;14.40;67.50;;;;;;5039622;28;38005;-55
2022/04/23 07:42:13;;;;;;;;;;;14.40;69.20;;;;;;5038321;28;38753;-54
2022/04/23 07:44:40;;;;;;;;;;;14.50;69.60;;;;;;5037946;28;38066;-62
2022/04/23 07:47:08;;;;;;;;;;;14.50;67.60;;;;;;5039088;28;36664;-63
2022/04/23 07:49:35;;;;;;;;;;;14.60;67.10;;;;;;5039141;28;37636;-63
2022/04/23 07:52:03;;;;;;;;;;;14.70;66.20;;;;;;5038342;28;37270;-62
2022/04/23 07:54:30;;;;;;;;;;;14.80;67.60;;;;;;5038787;28;36769;-63
2022/04/23 07:56:58;;;;;;;;;;;14.90;66.70;;;;;;5037871;28;37381;-62
2022/04/23 07:59:25;;;;;;;;;;;15.10;68.90;;;;;;5038502;28;37266;-63
2022/04/23 08:01:52;;;;;;;;;;;15.10;62.90;;;;;;5039739;28;37990;-62
2022/04/23 08:04:19;;;;;;;;;;;15.10;65.90;;;;;;5038257;28;38588;-61
2022/04/23 08:06:46;;;;;;;;;;;15.30;65.90;;;;;;5036396;28;37018;-62
2022/04/23 08:09:14;;;;;;;;;;;15.30;62.40;;;;;;5037264;28;36508;-62
2022/04/23 08:11:41;;;;;;;;;;;15.40;64.60;;;;;;5036343;28;36585;-62
2022/04/23 08:14:08;;;;;;;;;;;15.40;62.20;;;;;;5037603;28;37375;-64
2022/04/23 08:16:35;;;;;;;;;;;15.40;59.00;;;;;;5038748;28;35130;-63
2022/04/23 08:19:03;;;;;;;;;;;15.40;59.10;;;;;;5040828;28;39182;-63
2022/04/23 08:21:30;;;;;;;;;;;15.40;60.50;;;;;;5039045;28;38335;-64
2022/04/23 08:23:57;;;;;;;;;;;15.50;63.40;;;;;;5038346;28;37486;-62
2022/04/23 08:26:26;;;;;;;;;;;15.60;59.70;;;;;;5038465;28;37216;-62
2022/04/23 08:31:37;;;;;;;;;;;15.60;59.10;;;;;;5037303;28;39142;-63
2022/04/23 08:34:04;;;;;;;;;;;15.60;57.00;;;;;;5038659;28;37021;-62
2022/04/23 08:36:35;;;;;;;;;;;15.50;58.10;;;;;;5037921;28;36601;-62
2022/04/23 08:39:04;;;;;;;;;;;15.60;60.60;;;;;;5036930;28;37854;-61
2022/04/23 08:41:34;;;;;;;;;;;15.50;59.20;;;;;;5037127;28;38554;-61
2022/04/23 08:44:05;;;;;;;;;;;15.70;59.50;;;;;;5036099;28;37051;-61
2022/04/23 08:46:33;;;;;;;;;;;15.80;59.20;;;;;;5039356;28;36862;-62
2022/04/23 08:49:06;;;;;;;;;;;15.80;59.00;;;;;;5038511;28;38398;-61
2022/04/23 08:51:34;;;;;;;;;;;16.00;59.70;;;;;;5037350;28;38363;-62
2022/04/23 08:54:04;;;;;;;;;;;16.00;56.80;;;;;;5035498;28;38691;-63
2022/04/23 08:56:32;;;;;;;;;;;16.00;58.90;;;;;;5036870;28;37401;-63
2022/04/23 08:59:00;;;;;;;;;;;16.00;57.00;;;;;;5038351;28;37897;-63
2022/04/23 09:01:30;;;;;;;;;;;16.10;58.40;;;;;;5038123;28;36584;-62
2022/04/23 09:03:57;;;;;;;;;;;16.10;56.20;;;;;;5036458;28;37386;-62
2022/04/23 09:06:27;;;;;;;;;;;16.20;56.40;;;;;;5035092;28;37332;-60
2022/04/23 09:09:07;;;;;;;;;;;16.20;56.80;;;;;;5037665;28;37854;-63
2022/04/23 09:11:36;;;;;;;;;;;16.10;56.70;;;;;;5036710;28;37753;-62
2022/04/23 09:14:03;;;;;;;;;;;16.20;55.90;;;;;;5037874;28;36989;-62
2022/04/23 09:24:43;;;;;;;;;;;16.60;56.90;;;;;;5037583;28;39863;-54
2022/04/23 09:27:12;;;;;;;;;;;16.70;56.10;;;;;;5038079;28;36844;-54
2022/04/23 09:29:39;;;;;;;;;;;16.60;55.40;;;;;;5038343;28;38151;-56
2022/04/23 09:32:10;;;;;;;;;;;16.60;58.50;;;;;;5038453;28;38959;-54
2022/04/23 09:34:38;;;;;;;;;;;16.80;58.00;;;;;;5036565;28;36680;-53
2022/04/23 09:37:06;;;;;;;;;;;16.90;55.40;;;;;;5037912;28;37501;-56
2022/04/23 09:39:35;;;;;;;;;;;16.90;56.60;;;;;;5037732;28;38198;-52
2022/04/23 09:42:13;;;;;;;;;;;17.10;58.80;;;;;;5039384;28;40024;-53
2022/04/23 09:44:41;;;;;;;;;;;17.20;56.20;;;;;;5036815;28;38832;-55
2022/04/23 09:47:08;;;;;;;;;;;17.20;53.80;;;;;;5038439;28;36287;-63
2022/04/23 09:49:36;;;;;;;;;;;17.10;53.80;;;;;;5037295;28;36567;-63
2022/04/23 09:52:04;;;;;;;;;;;17.10;56.30;;;;;;5037201;28;36697;-63
2022/04/23 09:54:31;;;;;;;;;;;17.10;55.50;;;;;;5037862;28;37527;-63
2022/04/23 09:56:59;;;;;;;;;;;17.10;54.00;;;;;;5037440;28;38440;-62
2022/04/23 09:59:28;;;;;;;;;;;17.20;54.20;;;;;;5035853;28;37448;-64
2022/04/23 10:01:56;;;;;;;;;;;17.20;54.10;;;;;;5035774;28;31150;-63
2022/04/23 10:04:24;;;;;;;;;;;17.20;58.50;;;;;;5037744;28;37316;-63
2022/04/23 10:06:52;;;;;;;;;;;17.30;52.40;;;;;;5037022;28;35036;-62
2022/04/23 10:09:22;;;;;;;;;;;17.30;53.80;;;;;;5036353;28;37220;-63
2022/04/23 10:11:50;;;;;;;;;;;17.40;52.30;;;;;;5038358;28;38627;-63
2022/04/23 10:14:19;;;;;;;;;;;17.40;50.70;;;;;;5037606;28;36046;-55
2022/04/23 10:16:48;;;;;;;;;;;17.40;49.50;;;;;;5038098;28;36229;-55
2022/04/23 10:19:15;;;;;;;;;;;17.40;50.80;;;;;;5037438;28;38075;-56
2022/04/23 10:21:45;;;;;;;;;;;17.40;51.90;;;;;;5036054;28;36821;-55
2022/04/23 10:24:14;;;;;;;;;;;17.50;50.20;;;;;;5037620;28;39555;-55
2022/04/23 10:26:47;;;;;;;;;;;17.60;50.00;;;;;;5037448;28;36470;-52
2022/04/23 10:29:15;;;;;;;;;;;17.60;50.50;;;;;;5038175;28;39398;-56
2022/04/23 10:31:43;;;;;;;;;;;17.60;50.10;;;;;;5037958;28;38572;-61
2022/04/23 10:34:25;;;;;;;;;;;17.70;50.40;;;;;;5036593;28;37065;-63
2022/04/23 10:37:12;;;;;;;;;;;17.70;50.50;;;;;;5033354;28;35184;-63
2022/04/23 10:39:40;;;;;;;;;;;17.70;51.40;;;;;;5036608;28;37909;-63
2022/04/23 10:42:07;;;;;;;;;;;17.70;50.10;;;;;;5038556;28;36602;-63
2022/04/23 10:44:35;;;;;;;;;;;17.70;48.30;;;;;;5036847;28;37325;-63
2022/04/23 10:47:11;;;;;;;;;;;17.70;48.70;;;;;;5037406;28;36835;-63
2022/04/23 10:49:38;;;;;;;;;;;17.80;50.60;;;;;;5038628;28;37573;-63
2022/04/23 10:52:06;;;;;;;;;;;17.80;49.20;;;;;;5039747;28;39331;-61
2022/04/23 10:54:52;;;;;;;;;;;17.70;48.30;;;;;;5040355;28;37759;-63
2022/04/23 10:57:19;;;;;;;;;;;17.70;46.90;;;;;;5041074;28;35217;-63
2022/04/23 10:59:47;;;;;;;;;;;17.80;48.70;;;;;;5040747;28;39607;-64
2022/04/23 11:02:29;;;;;;;;;;;17.90;48.20;;;;;;5039422;28;38967;-63
2022/04/23 11:12:14;;;;;;;;;;;17.90;46.20;;;;;;5040952;28;38241;-62
2022/04/23 11:13:25;;;;;;;;;;;17.70;45.50;;;;;;5039842;28;38562;-55
2022/04/23 11:16:12;;;;;;;;;;;17.70;44.70;;;;;;5039938;28;37007;-55
2022/04/23 11:18:40;;;;;;;;;;;17.70;45.80;;;;;;5040773;28;36693;-53
2022/04/23 11:21:11;;;;;;;;;;;17.70;46.30;;;;;;5042119;28;38304;-61
2022/04/23 11:23:42;;;;;;;;;;;17.70;45.50;;;;;;5039333;28;38497;-62
2022/04/23 11:26:11;;;;;;;;;;;17.80;46.00;;;;;;5040395;28;35935;-63
2022/04/23 11:28:38;;;;;;;;;;;17.80;46.30;;;;;;5041478;28;38916;-55
2022/04/23 11:31:09;;;;;;;;;;;17.70;45.40;;;;;;5040051;28;37036;-55
2022/04/23 11:33:37;;;;;;;;;;;17.80;44.60;;;;;;5040088;28;38667;-55
2022/04/23 11:36:04;;;;;;;;;;;17.70;43.10;;;;;;5039962;28;36986;-53
2022/04/23 11:38:32;;;;;;;;;;;17.70;45.20;;;;;;5037719;28;35887;-55
2022/04/23 11:41:00;;;;;;;;;;;17.70;44.80;;;;;;5039376;27;39130;-52
2022/04/23 11:43:34;;;;;;;;;;;17.80;46.90;;;;;;5039631;28;40246;-52
2022/04/23 11:46:02;;;;;;;;;;;17.90;46.50;;;;;;5039331;28;37039;-54
2022/04/23 11:48:39;;;;;;;;;;;17.80;44.70;;;;;;5038622;28;36154;-53
2022/04/23 11:51:07;;;;;;;;;;;17.90;46.40;;;;;;5038804;28;36436;-54
2022/04/23 11:53:52;;;;;;;;;;;17.80;43.80;;;;;;5035874;28;39104;-55
2022/04/23 11:56:28;;;;;;;;;;;17.70;44.20;;;;;;5038443;28;37159;-64
2022/04/23 11:58:56;;;;;;;;;;;17.70;44.80;;;;;;5038752;28;36243;-63
2022/04/23 12:01:24;;;;;;;;;;;17.60;45.40;;;;;;5037641;28;39433;-63
2022/04/23 12:03:52;;;;;;;;;;;17.60;48.20;;;;;;5036760;28;39282;-56
2022/04/23 12:06:19;;;;;;;;;;;17.70;46.80;;;;;;5035394;28;36009;-62
2022/04/23 12:08:46;;;;;;;;;;;17.70;47.70;;;;;;5037095;28;36900;-62
2022/04/23 12:11:24;;;;;;;;;;;17.60;46.40;;;;;;5038897;28;38933;-55
2022/04/23 12:13:51;;;;;;;;;;;17.60;45.70;;;;;;5037940;28;37818;-56
2022/04/23 12:16:31;;;;;;;;;;;17.50;45.80;;;;;;5037939;28;35573;-54
2022/04/23 12:18:59;;;;;;;;;;;17.40;46.30;;;;;;5038469;28;39426;-55
2022/04/23 12:21:26;;;;;;;;;;;17.50;46.00;;;;;;5039180;28;38297;-54
2022/04/23 12:23:53;;;;;;;;;;;17.50;48.30;;;;;;5037946;28;36354;-55
2022/04/23 12:26:21;;;;;;;;;;;17.40;47.90;;;;;;5038802;28;37341;-55
2022/04/23 12:42:54;;;;;;;;;;;17.20;45.10;;;;;;5039313;28;38861;-62
2022/04/23 12:45:22;;;;;;;;;;;17.20;46.60;;;;;;5039054;28;36914;-63
2022/04/23 12:47:49;;;;;;;;;;;17.20;46.30;;;;;;5039304;28;36156;-63
2022/04/23 12:50:26;;;;;;;;;;;17.20;46.20;;;;;;5038928;28;35708;-61
2022/04/23 12:52:53;;;;;;;;;;;17.10;46.30;;;;;;5038634;28;37817;-63
2022/04/23 12:55:22;;;;;;;;;;;17.10;47.50;;;;;;5038246;28;37667;-61
2022/04/23 12:57:50;;;;;;;;;;;17.10;49.50;;;;;;5039116;28;36491;-63
2022/04/23 13:00:18;;;;;;;;;;;17.10;47.30;;;;;;5039518;28;36223;-62
2022/04/23 13:02:48;;;;;;;;;;;17.10;47.40;;;;;;5038526;28;38363;-56
2022/04/23 13:05:15;;;;;;;;;;;17.10;44.70;;;;;;5037239;28;36799;-55
2022/04/23 13:10:27;;;;;;;;;;;17.00;45.60;;;;;;5040179;28;37706;-54
2022/04/23 13:12:54;;;;;;;;;;;17.00;45.80;;;;;;5039316;28;37580;-53
2022/04/23 13:15:22;;;;;;;;;;;17.00;47.10;;;;;;5033607;28;36585;-52
2022/04/23 13:17:51;;;;;;;;;;;16.90;46.00;;;;;;5038475;28;37296;-54
2022/04/23 13:20:19;;;;;;;;;;;17.00;48.30;;;;;;5037911;28;35273;-55
2022/04/23 13:22:46;;;;;;;;;;;16.90;47.30;;;;;;5037768;28;40851;-53
2022/04/23 13:25:14;;;;;;;;;;;16.90;45.50;;;;;;5035763;28;37970;-53
2022/04/23 13:27:41;;;;;;;;;;;16.90;45.70;;;;;;5037291;28;35929;-55
2022/04/23 13:30:09;;;;;;;;;;;16.90;46.60;;;;;;5038465;28;37380;-62
2022/04/23 13:32:38;;;;;;;;;;;16.90;45.20;;;;;;5037793;28;38412;-62
2022/04/23 13:35:08;;;;;;;;;;;16.90;45.50;;;;;;5037476;28;40821;-63
2022/04/23 13:37:35;;;;;;;;;;;16.90;45.80;;;;;;5038965;28;36093;-63
2022/04/23 13:40:02;;;;;;;;;;;16.90;47.50;;;;;;5037577;28;39428;-62
2022/04/23 13:42:29;;;;;;;;;;;16.90;46.10;;;;;;5038316;28;38573;-62
2022/04/23 13:44:57;;;;;;;;;;;16.90;45.30;;;;;;5038913;28;37552;-61
2022/04/23 13:47:24;;;;;;;;;;;16.90;44.80;;;;;;5037651;28;37341;-62
2022/04/23 13:49:51;;;;;;;;;;;16.80;44.90;;;;;;5038488;28;35230;-55
2022/04/23 13:52:20;;;;;;;;;;;16.80;46.30;;;;;;5036843;28;37820;-55
2022/04/23 13:54:47;;;;;;;;;;;16.90;49.10;;;;;;5039013;28;37880;-52
2022/04/23 13:57:14;;;;;;;;;;;16.90;44.80;;;;;;5037087;28;37374;-55
2022/04/23 13:59:41;;;;;;;;;;;16.90;45.50;;;;;;5038676;28;39934;-54
2022/04/23 14:10:23;;;;;;;;;;;16.90;44.60;;;;;;5038019;28;36889;-55
2022/04/23 14:12:51;;;;;;;;;;;16.80;44.50;;;;;;5038998;28;38865;-55
2022/04/23 14:15:20;;;;;;;;;;;16.80;45.30;;;;;;5036695;28;37617;-56
2022/04/23 14:17:47;;;;;;;;;;;16.80;46.30;;;;;;5037589;28;36040;-50
2022/04/23 14:20:14;;;;;;;;;;;16.80;43.90;;;;;;5037465;28;38444;-55
2022/04/23 14:22:42;;;;;;;;;;;16.80;44.60;;;;;;5038647;28;37613;-61
2022/04/23 14:25:09;;;;;;;;;;;16.80;44.80;;;;;;5037823;28;39153;-61
2022/04/23 14:27:37;;;;;;;;;;;16.80;47.50;;;;;;5041853;28;36652;-61
2022/04/23 14:30:05;;;;;;;;;;;16.80;43.70;;;;;;5040671;28;36141;-62
2022/04/23 14:32:33;;;;;;;;;;;16.80;43.90;;;;;;5040128;28;37481;-61
2022/04/23 14:35:00;;;;;;;;;;;16.90;47.30;;;;;;5040679;28;37692;-61
2022/04/23 14:37:27;;;;;;;;;;;16.90;44.70;;;;;;5039831;28;37030;-55
2022/04/23 14:39:55;;;;;;;;;;;16.90;45.10;;;;;;5040192;28;38384;-55
2022/04/23 14:42:22;;;;;;;;;;;17.10;45.30;;;;;;5040081;28;41263;-55
2022/04/23 14:44:49;;;;;;;;;;;16.90;45.20;;;;;;5038802;28;38687;-53
2022/04/23 14:47:17;;;;;;;;;;;16.80;43.40;;;;;;5040173;28;38920;-54
2022/04/23 14:49:44;;;;;;;;;;;16.80;43.10;;;;;;5040763;28;36579;-54
2022/04/23 14:54:56;;;;;;;;;;;16.80;43.80;;;;;;5035535;28;40025;-55
2022/04/23 14:57:24;;;;;;;;;;;16.80;44.90;;;;;;5034040;28;36893;-54
2022/04/23 14:59:51;;;;;;;;;;;16.80;44.00;;;;;;5037198;28;36703;-55
2022/04/23 15:02:18;;;;;;;;;;;16.80;44.20;;;;;;5036960;28;37545;-55
2022/04/23 15:04:45;;;;;;;;;;;16.90;43.40;;;;;;5036012;28;35868;-55
2022/04/23 15:07:12;;;;;;;;;;;16.90;44.70;;;;;;5038005;28;38231;-55
2022/04/23 15:09:39;;;;;;;;;;;16.80;45.20;;;;;;5037685;28;35216;-55
2022/04/23 15:12:08;;;;;;;;;;;16.90;43.50;;;;;;5039203;28;37931;-56